Time;durP1;ratioP1;P1;durP2;ratioP2;P2;SDS_P1;SDS_P2;PMS_P1;PMS_P2;Temp;Humidity;BMP_temperature;BMP_pressure;BME280_temperature;BME280_humidity;BME280_pressure;Samples;Min_cycle;Max_cycle;Signal;HPM_P1;HPM_P2
2023/05/20 00:00:53;;;;;;;;;;;;;;;11.94;100.00;101694.91;4999494;28;19918;-95
2023/05/20 00:03:19;;;;;;;;;;;;;;;11.94;100.00;101689.72;4999501;28;20211;-96
2023/05/20 00:05:44;;;;;;;;;;;;;;;11.85;100.00;101697.00;5000013;28;20287;-93
2023/05/20 00:08:10;;;;;;;;;;;;;;;11.65;100.00;101693.53;4999321;28;19964;-93
2023/05/20 00:10:35;;;;;;;;;;;;;;;11.71;100.00;101695.03;4999332;28;20019;-94
2023/05/20 00:13:00;;;;;;;;;;;;;;;11.83;100.00;101702.25;5016269;28;19933;-96
2023/05/20 00:15:26;;;;;;;;;;;;;;;11.77;100.00;101700.75;4998809;28;19924;-96
2023/05/20 00:17:51;;;;;;;;;;;;;;;11.68;100.00;101713.25;4998920;28;19975;-96
2023/05/20 00:20:16;;;;;;;;;;;;;;;11.72;100.00;101704.47;4999217;28;19918;-96
2023/05/20 00:22:42;;;;;;;;;;;;;;;11.69;100.00;101707.19;4998952;28;20376;-96
2023/05/20 00:25:07;;;;;;;;;;;;;;;11.67;100.00;101703.81;4998845;28;20390;-96
2023/05/20 00:27:33;;;;;;;;;;;;;;;11.65;100.00;101703.88;4998656;28;20435;-96
2023/05/20 00:29:58;;;;;;;;;;;;;;;11.68;100.00;101698.59;5016019;28;19961;-95
2023/05/20 00:32:23;;;;;;;;;;;;;;;11.75;100.00;101704.31;4998802;28;19917;-96
2023/05/20 00:34:56;;;;;;;;;;;;;;;11.75;100.00;101699.16;4998520;28;20342;-96
2023/05/20 00:37:21;;;;;;;;;;;;;;;11.70;97.76;101706.25;4998663;28;19922;-96
2023/05/20 00:39:46;;;;;;;;;;;;;;;11.74;93.83;101702.66;4998703;28;19913;-93
2023/05/20 00:42:18;;;;;;;;;;;;;;;11.60;91.84;101710.13;4998678;28;20020;-95
2023/05/20 00:44:43;;;;;;;;;;;;;;;11.60;89.57;101712.72;4998815;28;20397;-96
2023/05/20 00:47:08;;;;;;;;;;;;;;;11.51;88.14;101709.63;4998387;28;19922;-96
2023/05/20 00:49:34;;;;;;;;;;;;;;;11.45;88.60;101707.28;4998033;28;19929;-95
2023/05/20 00:51:59;;;;;;;;;;;;;;;11.37;88.69;101709.34;4998410;28;19932;-96
2023/05/20 00:54:25;;;;;;;;;;;;;;;11.22;90.51;101712.53;5015603;28;19914;-96
2023/05/20 00:56:50;;;;;;;;;;;;;;;11.14;88.92;101705.94;4998451;28;19960;-96
2023/05/20 00:59:15;;;;;;;;;;;;;;;11.18;87.42;101703.22;4997873;28;19975;-96
2023/05/20 01:01:40;;;;;;;;;;;;;;;11.13;88.07;101696.47;4998321;28;19928;-95
2023/05/20 01:04:06;;;;;;;;;;;;;;;11.14;85.87;101703.34;4998214;28;19922;-96
2023/05/20 01:06:32;;;;;;;;;;;;;;;10.96;88.69;101698.06;4998071;28;19917;-96
2023/05/20 01:08:57;;;;;;;;;;;;;;;10.92;86.70;101699.91;4998150;28;19921;-96
2023/05/20 01:11:30;;;;;;;;;;;;;;;10.76;87.63;101697.09;4998058;28;20402;-96
2023/05/20 01:13:57;;;;;;;;;;;;;;;10.73;87.14;101702.38;4998039;28;19948;-95
2023/05/20 01:16:23;;;;;;;;;;;;;;;10.70;88.58;101697.31;4997973;28;19921;-96
2023/05/20 01:18:49;;;;;;;;;;;;;;;10.36;88.69;101692.53;4997838;28;19979;-94
2023/05/20 01:21:16;;;;;;;;;;;;;;;10.55;87.25;101690.13;4998018;28;19917;-96
2023/05/20 01:23:41;;;;;;;;;;;;;;;10.55;86.89;101683.22;4997908;28;20457;-93
2023/05/20 01:26:07;;;;;;;;;;;;;;;10.46;87.37;101688.72;4997892;28;19928;-96
2023/05/20 01:28:35;;;;;;;;;;;;;;;10.30;88.72;101687.63;4997518;28;19918;-96
2023/05/20 01:31:00;;;;;;;;;;;;;;;10.28;87.05;101691.09;4997699;28;19917;-95
2023/05/20 01:33:27;;;;;;;;;;;;;;;10.24;87.89;101684.34;4997599;28;19924;-96
2023/05/20 01:35:53;;;;;;;;;;;;;;;10.31;86.87;101681.56;4998000;28;20291;-96
2023/05/20 01:38:20;;;;;;;;;;;;;;;10.26;86.82;101686.84;4997797;28;19917;-96
2023/05/20 01:40:46;;;;;;;;;;;;;;;10.18;87.77;101688.88;4997508;28;20019;-95
2023/05/20 01:43:11;;;;;;;;;;;;;;;10.30;86.03;101698.78;5013615;28;20450;-95
2023/05/20 01:45:38;;;;;;;;;;;;;;;10.18;85.58;101689.69;5016906;28;20006;-96
2023/05/20 01:48:04;;;;;;;;;;;;;;;10.08;85.49;101693.50;5016835;28;19917;-95
2023/05/20 01:50:29;;;;;;;;;;;;;;;10.04;85.75;101686.78;5017172;28;20423;-95
2023/05/20 01:52:54;;;;;;;;;;;;;;;10.00;85.81;101690.38;5016822;28;19917;-96
2023/05/20 01:55:20;;;;;;;;;;;;;;;9.90;86.78;101684.69;5016614;28;20011;-95
2023/05/20 01:57:46;;;;;;;;;;;;;;;9.85;86.52;101686.56;5016770;28;19917;-95
2023/05/20 02:00:11;;;;;;;;;;;;;;;9.78;87.23;101685.94;5016550;28;19940;-95
2023/05/20 02:02:36;;;;;;;;;;;;;;;9.81;86.73;101685.00;5016670;28;20011;-95
2023/05/20 02:05:01;;;;;;;;;;;;;;;9.85;85.65;101679.69;5015887;28;19960;-96
2023/05/20 02:07:27;;;;;;;;;;;;;;;9.54;88.11;101684.19;5016605;28;19919;-95
2023/05/20 02:09:52;;;;;;;;;;;;;;;9.48;88.62;101682.66;5016181;28;20389;-96
2023/05/20 02:12:17;;;;;;;;;;;;;;;9.43;88.03;101685.38;5016326;28;20366;-95
2023/05/20 02:14:43;;;;;;;;;;;;;;;9.41;87.57;101681.16;5016630;28;19917;-96
2023/05/20 02:17:08;;;;;;;;;;;;;;;9.26;89.25;101677.34;5016378;28;19925;-95
2023/05/20 02:19:33;;;;;;;;;;;;;;;9.09;90.71;101684.78;5016298;28;20020;-95
2023/05/20 02:21:59;;;;;;;;;;;;;;;9.03;91.20;101679.81;5016373;28;19924;-96
2023/05/20 02:24:24;;;;;;;;;;;;;;;8.95;91.97;101682.63;5016374;28;19918;-95
2023/05/20 02:26:50;;;;;;;;;;;;;;;8.89;92.30;101687.97;5016214;28;19917;-96
2023/05/20 02:29:16;;;;;;;;;;;;;;;8.94;91.50;101676.63;5016587;28;19917;-95
2023/05/20 02:31:41;;;;;;;;;;;;;;;8.87;91.87;101682.00;5016197;28;19921;-95
2023/05/20 02:34:06;;;;;;;;;;;;;;;8.88;91.78;101681.97;5016235;28;19917;-96
2023/05/20 02:36:32;;;;;;;;;;;;;;;8.85;92.50;101683.78;5016226;28;20378;-95
2023/05/20 02:38:57;;;;;;;;;;;;;;;8.83;93.03;101682.97;5016080;28;19917;-94
2023/05/20 02:41:22;;;;;;;;;;;;;;;8.80;92.68;101678.78;5015922;28;19999;-96
2023/05/20 02:43:47;;;;;;;;;;;;;;;8.69;93.92;101686.81;5016082;28;19964;-96
2023/05/20 02:46:14;;;;;;;;;;;;;;;8.63;93.59;101687.00;5016088;28;19924;-96
2023/05/20 02:48:39;;;;;;;;;;;;;;;8.55;94.11;101692.38;5016004;28;20080;-95
2023/05/20 02:51:05;;;;;;;;;;;;;;;8.47;94.71;101691.75;5015951;28;20421;-96
2023/05/20 02:53:30;;;;;;;;;;;;;;;8.46;94.83;101684.94;5016312;28;19921;-96
2023/05/20 02:55:56;;;;;;;;;;;;;;;8.39;94.62;101677.38;5015864;28;19913;-96
2023/05/20 02:58:25;;;;;;;;;;;;;;;8.38;95.33;101680.84;5015690;28;19924;-95
2023/05/20 03:00:50;;;;;;;;;;;;;;;8.28;95.62;101681.09;5015624;28;19917;-96
2023/05/20 03:03:15;;;;;;;;;;;;;;;8.17;96.07;101684.84;5015835;28;19920;-95
2023/05/20 03:05:44;;;;;;;;;;;;;;;8.15;96.82;101680.59;5032273;28;20334;-96
2023/05/20 03:08:10;;;;;;;;;;;;;;;8.13;95.54;101682.38;5015646;28;19917;-96
2023/05/20 03:10:36;;;;;;;;;;;;;;;8.09;96.20;101685.91;5015413;28;20341;-95
2023/05/20 03:13:02;;;;;;;;;;;;;;;8.06;96.27;101674.88;5015700;28;19917;-96
2023/05/20 03:15:27;;;;;;;;;;;;;;;8.03;97.26;101678.38;5015324;28;20407;-95
2023/05/20 03:17:52;;;;;;;;;;;;;;;7.90;97.98;101682.13;5015696;28;19921;-96
2023/05/20 03:20:18;;;;;;;;;;;;;;;7.88;97.55;101676.22;5015502;28;19917;-96
2023/05/20 03:22:43;;;;;;;;;;;;;;;7.83;97.58;101675.50;5015812;28;19982;-95
2023/05/20 03:25:08;;;;;;;;;;;;;;;7.84;98.54;101672.88;5015321;28;19925;-96
2023/05/20 03:27:35;;;;;;;;;;;;;;;7.80;97.75;101673.81;5015329;28;19917;-95
2023/05/20 03:30:01;;;;;;;;;;;;;;;7.84;97.74;101669.47;5015310;28;19917;-95
2023/05/20 03:32:26;;;;;;;;;;;;;;;7.74;98.28;101668.00;5015361;28;19917;-96
2023/05/20 03:34:53;;;;;;;;;;;;;;;7.74;98.92;101662.88;5015158;28;19924;-95
2023/05/20 03:37:18;;;;;;;;;;;;;;;7.80;98.76;101662.69;5015280;28;19925;-96
2023/05/20 03:39:43;;;;;;;;;;;;;;;7.63;100.00;101664.00;5015213;28;19917;-95
2023/05/20 03:42:09;;;;;;;;;;;;;;;7.60;100.00;101666.63;5015520;28;19925;-96
2023/05/20 03:44:34;;;;;;;;;;;;;;;7.59;100.00;101661.53;5015481;28;19917;-96
2023/05/20 03:47:00;;;;;;;;;;;;;;;7.58;100.00;101663.25;5015337;28;20011;-96
2023/05/20 03:49:25;;;;;;;;;;;;;;;7.54;100.00;101673.66;5032885;28;20390;-94
2023/05/20 03:51:50;;;;;;;;;;;;;;;7.56;100.00;101670.19;5015495;28;20338;-96
2023/05/20 03:54:16;;;;;;;;;;;;;;;7.58;100.00;101658.09;5016697;28;19917;-96
2023/05/20 03:56:41;;;;;;;;;;;;;;;7.74;99.36;101662.88;5015320;28;19921;-96
2023/05/20 03:59:06;;;;;;;;;;;;;;;7.61;100.00;101663.19;5015143;28;20354;-95
2023/05/20 04:01:32;;;;;;;;;;;;;;;7.53;100.00;101664.25;5015189;28;19918;-95
2023/05/20 04:03:57;;;;;;;;;;;;;;;7.53;100.00;101656.53;5015089;28;19982;-96
2023/05/20 04:06:23;;;;;;;;;;;;;;;7.57;100.00;101656.44;5015035;28;19978;-95
2023/05/20 04:08:48;;;;;;;;;;;;;;;7.49;100.00;101660.94;5031275;28;19921;-95
2023/05/20 04:11:14;;;;;;;;;;;;;;;7.49;100.00;101658.38;5014930;28;20364;-96
2023/05/20 04:13:39;;;;;;;;;;;;;;;7.35;100.00;101655.28;5015211;28;20347;-96
2023/05/20 04:16:04;;;;;;;;;;;;;;;7.42;100.00;101647.38;5015393;28;20439;-96
2023/05/20 04:18:30;;;;;;;;;;;;;;;7.39;100.00;101651.75;5014839;28;20383;-96
2023/05/20 04:20:56;;;;;;;;;;;;;;;7.42;100.00;101651.69;5015499;28;19917;-96
2023/05/20 04:23:21;;;;;;;;;;;;;;;7.40;100.00;101656.84;5015314;28;19952;-95
2023/05/20 04:25:47;;;;;;;;;;;;;;;7.42;100.00;101649.13;5014995;28;20008;-95
2023/05/20 04:28:15;;;;;;;;;;;;;;;7.41;100.00;101653.41;5016435;28;19913;-95
2023/05/20 04:30:41;;;;;;;;;;;;;;;7.38;100.00;101644.94;5018396;28;20385;-95
2023/05/20 04:33:06;;;;;;;;;;;;;;;7.39;100.00;101651.75;5018959;28;20260;-95
2023/05/20 04:35:33;;;;;;;;;;;;;;;7.27;100.00;101643.47;5018458;28;19971;-95
2023/05/20 04:37:59;;;;;;;;;;;;;;;7.35;100.00;101639.88;5018703;28;20393;-95
2023/05/20 04:40:26;;;;;;;;;;;;;;;7.41;100.00;101639.72;5018532;28;20267;-96
2023/05/20 04:42:51;;;;;;;;;;;;;;;7.34;100.00;101643.31;5018663;28;20000;-95
2023/05/20 04:45:17;;;;;;;;;;;;;;;7.38;100.00;101643.19;5018626;28;19968;-95
2023/05/20 04:47:43;;;;;;;;;;;;;;;7.39;100.00;101641.47;5018521;28;20282;-96
2023/05/20 04:50:12;;;;;;;;;;;;;;;7.43;100.00;101643.09;5018288;28;19925;-95
2023/05/20 04:52:38;;;;;;;;;;;;;;;7.40;100.00;101640.59;5018610;28;20310;-96
2023/05/20 04:55:03;;;;;;;;;;;;;;;7.43;100.00;101645.66;5018200;28;19917;-95
2023/05/20 04:57:29;;;;;;;;;;;;;;;7.39;100.00;101642.34;5018198;28;19943;-93
2023/05/20 04:59:57;;;;;;;;;;;;;;;7.39;100.00;101642.34;5018398;28;19917;-93
2023/05/20 05:02:23;;;;;;;;;;;;;;;7.51;100.00;101636.06;5018204;28;19921;-94
2023/05/20 05:04:48;;;;;;;;;;;;;;;7.49;100.00;101633.50;5018407;28;20074;-94
2023/05/20 05:07:13;;;;;;;;;;;;;;;7.55;100.00;101640.22;5017751;28;19917;-95
2023/05/20 05:09:38;;;;;;;;;;;;;;;7.40;100.00;101645.75;5034143;28;19952;-95
2023/05/20 05:12:04;;;;;;;;;;;;;;;7.46;100.00;101636.16;5017996;28;19917;-94
2023/05/20 05:14:29;;;;;;;;;;;;;;;7.51;100.00;101641.19;5017897;28;19924;-95
2023/05/20 05:16:54;;;;;;;;;;;;;;;7.62;100.00;101639.16;5017581;28;19928;-94
2023/05/20 05:19:20;;;;;;;;;;;;;;;7.68;100.00;101646.75;5035107;28;20398;-94
2023/05/20 05:21:46;;;;;;;;;;;;;;;7.74;100.00;101642.31;5017569;28;19924;-96
2023/05/20 05:24:12;;;;;;;;;;;;;;;7.68;100.00;101639.03;5017896;28;19923;-95
2023/05/20 05:26:37;;;;;;;;;;;;;;;7.62;100.00;101643.47;5017569;28;19917;-94
2023/05/20 05:29:02;;;;;;;;;;;;;;;7.80;100.00;101644.72;5017429;28;19921;-95
2023/05/20 05:31:27;;;;;;;;;;;;;;;7.76;100.00;101651.66;5017429;28;19917;-95
2023/05/20 05:33:52;;;;;;;;;;;;;;;7.85;100.00;101650.56;5017428;28;19918;-95
2023/05/20 05:36:18;;;;;;;;;;;;;;;7.84;100.00;101654.88;5017363;28;19913;-95
2023/05/20 05:38:43;;;;;;;;;;;;;;;7.88;100.00;101650.50;5017036;28;19917;-95
2023/05/20 05:41:08;;;;;;;;;;;;;;;7.85;100.00;101650.56;5016459;28;19917;-95
2023/05/20 05:43:34;;;;;;;;;;;;;;;7.97;100.00;101650.25;5017256;28;19917;-94
2023/05/20 05:45:59;;;;;;;;;;;;;;;8.04;99.83;101650.91;5017266;28;20242;-94
2023/05/20 05:48:24;;;;;;;;;;;;;;;8.09;99.24;101649.91;5017290;28;19988;-94
2023/05/20 05:50:49;;;;;;;;;;;;;;;8.14;99.56;101648.06;5033535;28;19929;-94
2023/05/20 05:53:15;;;;;;;;;;;;;;;8.21;98.06;101640.16;5016927;28;19917;-94
2023/05/20 05:55:40;;;;;;;;;;;;;;;8.33;96.19;101643.22;5016985;28;19909;-94
2023/05/20 05:58:05;;;;;;;;;;;;;;;8.46;95.34;101648.91;5016951;28;19917;-95
2023/05/20 06:00:31;;;;;;;;;;;;;;;8.51;94.76;101636.75;5016953;28;19941;-94
2023/05/20 06:02:56;;;;;;;;;;;;;;;8.61;94.76;101647.63;5016857;28;20347;-95
2023/05/20 06:05:21;;;;;;;;;;;;;;;8.71;94.82;101643.88;5016981;28;19924;-95
2023/05/20 06:07:46;;;;;;;;;;;;;;;8.82;93.98;101643.53;5016805;28;19940;-95
2023/05/20 06:10:12;;;;;;;;;;;;;;;8.84;92.44;101646.91;5016528;28;19917;-95
2023/05/20 06:12:37;;;;;;;;;;;;;;;8.98;91.81;101642.16;5034301;28;20395;-95
2023/05/20 06:15:02;;;;;;;;;;;;;;;9.17;93.13;101639.03;5017034;28;19964;-95
2023/05/20 06:17:27;;;;;;;;;;;;;;;9.18;93.30;101645.84;5017130;28;20294;-95
2023/05/20 06:19:53;;;;;;;;;;;;;;;9.36;90.64;101641.81;5017425;28;19917;-94
2023/05/20 06:22:18;;;;;;;;;;;;;;;10.01;88.97;101635.31;5017567;28;19916;-94
2023/05/20 06:24:43;;;;;;;;;;;;;;;12.46;76.81;101634.81;5013731;28;20363;-95
2023/05/20 06:27:09;;;;;;;;;;;;;;;13.51;67.55;101632.38;5011849;28;19944;-94
2023/05/20 06:29:34;;;;;;;;;;;;;;;14.45;63.84;101630.91;5035211;28;19925;-96
2023/05/20 06:32:00;;;;;;;;;;;;;;;15.11;61.72;101632.44;5017882;28;20067;-95
2023/05/20 06:34:25;;;;;;;;;;;;;;;15.89;57.44;101624.41;5016030;28;19924;-95
2023/05/20 06:36:50;;;;;;;;;;;;;;;16.43;56.07;101629.72;5013328;28;20267;-96
2023/05/20 06:39:15;;;;;;;;;;;;;;;17.27;52.24;101623.47;5014437;28;19941;-95
2023/05/20 06:41:41;;;;;;;;;;;;;;;17.78;51.22;101631.31;4998136;28;19932;-95
2023/05/20 06:44:06;;;;;;;;;;;;;;;18.14;49.26;101627.09;5009716;28;19924;-94
2023/05/20 06:46:32;;;;;;;;;;;;;;;18.18;49.59;101629.38;5011779;28;20020;-94
2023/05/20 06:48:57;;;;;;;;;;;;;;;19.13;47.50;101626.91;5006884;28;19956;-95
2023/05/20 06:51:23;;;;;;;;;;;;;;;18.93;46.90;101625.78;5009600;28;19918;-94
2023/05/20 06:53:48;;;;;;;;;;;;;;;19.27;46.15;101630.28;5009537;28;19921;-96
2023/05/20 06:56:13;;;;;;;;;;;;;;;18.70;47.36;101624.78;5010286;28;19918;-95
2023/05/20 06:58:38;;;;;;;;;;;;;;;19.04;47.51;101630.19;5007389;28;19921;-95
2023/05/20 07:01:04;;;;;;;;;;;;;;;19.63;46.02;101627.47;5020265;28;21300;-96
2023/05/20 07:03:29;;;;;;;;;;;;;;;19.99;43.99;101619.53;5013418;28;20007;-96
2023/05/20 07:05:55;;;;;;;;;;;;;;;19.27;45.49;101633.72;5021909;28;20055;-95
2023/05/20 07:08:20;;;;;;;;;;;;;;;18.88;46.43;101627.06;5012456;28;19932;-95
2023/05/20 07:10:45;;;;;;;;;;;;;;;18.75;46.17;101627.06;5015295;28;19975;-95
2023/05/20 07:13:10;;;;;;;;;;;;;;;19.80;44.62;101622.75;5018551;28;19921;-96
2023/05/20 07:15:36;;;;;;;;;;;;;;;18.87;45.55;101620.16;5017308;28;19921;-96
2023/05/20 07:18:01;;;;;;;;;;;;;;;19.02;45.97;101617.25;5020728;28;19917;-94
2023/05/20 07:20:26;;;;;;;;;;;;;;;18.65;48.09;101616.44;5030401;28;19917;-95
2023/05/20 07:22:51;;;;;;;;;;;;;;;19.06;45.62;101611.78;5015530;28;20011;-96
2023/05/20 07:25:17;;;;;;;;;;;;;;;19.41;45.06;101609.97;5025628;28;20283;-95
2023/05/20 07:27:42;;;;;;;;;;;;;;;20.16;43.30;101610.31;5020642;28;19968;-96
2023/05/20 07:30:08;;;;;;;;;;;;;;;20.10;43.74;101598.56;5030349;28;19921;-95
2023/05/20 07:32:33;;;;;;;;;;;;;;;19.99;44.71;101594.13;5026489;28;19932;-96
2023/05/20 07:34:58;;;;;;;;;;;;;;;19.87;44.52;101600.34;5017853;28;19933;-96
2023/05/20 07:37:24;;;;;;;;;;;;;;;18.78;47.94;101608.59;5014683;28;19927;-94
2023/05/20 07:39:49;;;;;;;;;;;;;;;19.89;44.92;101601.06;5014827;28;20375;-96
2023/05/20 07:42:15;;;;;;;;;;;;;;;19.47;45.67;101600.78;5014536;28;19932;-95
2023/05/20 07:44:40;;;;;;;;;;;;;;;20.09;45.15;101610.84;5014879;28;19928;-95
2023/05/20 07:47:05;;;;;;;;;;;;;;;20.48;43.90;101613.84;5016006;28;19963;-95
2023/05/20 07:49:30;;;;;;;;;;;;;;;20.77;43.49;101613.28;5014645;28;19963;-96
2023/05/20 07:51:56;;;;;;;;;;;;;;;19.74;43.70;101618.00;5014817;28;19917;-95
2023/05/20 07:54:21;;;;;;;;;;;;;;;20.47;41.49;101608.72;5011983;28;19933;-95
2023/05/20 07:56:46;;;;;;;;;;;;;;;20.63;41.64;101616.19;5013999;28;19971;-95
2023/05/20 07:59:12;;;;;;;;;;;;;;;19.71;43.38;101620.84;5013838;28;20375;-94
2023/05/20 08:01:38;;;;;;;;;;;;;;;20.60;41.89;101617.28;5013532;28;19921;-93
2023/05/20 08:04:03;;;;;;;;;;;;;;;21.15;40.81;101620.59;5017400;28;20004;-95
2023/05/20 08:06:28;;;;;;;;;;;;;;;21.23;40.66;101612.09;5018703;28;19940;-95
2023/05/20 08:08:53;;;;;;;;;;;;;;;22.17;40.30;101606.72;5036443;28;19917;-96
2023/05/20 08:11:20;;;;;;;;;;;;;;;22.01;40.16;101594.06;5019024;28;19924;-95
2023/05/20 08:13:47;;;;;;;;;;;;;;;21.87;38.40;101610.19;5018511;28;19921;-94
2023/05/20 08:16:12;;;;;;;;;;;;;;;21.93;38.04;101609.69;5017861;28;20112;-94
2023/05/20 08:18:38;;;;;;;;;;;;;;;21.47;37.95;101613.63;5018060;28;20457;-95
2023/05/20 08:21:06;;;;;;;;;;;;;;;21.64;37.61;101602.53;5018156;28;19928;-93
2023/05/20 08:23:32;;;;;;;;;;;;;;;21.67;38.81;101607.50;5018187;28;19913;-94
2023/05/20 08:26:01;;;;;;;;;;;;;;;22.34;39.19;101600.81;5018098;28;19917;-94
2023/05/20 08:28:26;;;;;;;;;;;;;;;22.58;37.83;101610.94;5017758;28;19962;-94
2023/05/20 08:30:52;;;;;;;;;;;;;;;22.05;37.52;101610.41;5035203;28;19917;-95
2023/05/20 08:33:18;;;;;;;;;;;;;;;21.36;38.90;101612.72;5017432;28;19928;-94
2023/05/20 08:35:43;;;;;;;;;;;;;;;21.23;40.06;101601.59;5016921;28;19929;-93
2023/05/20 08:38:08;;;;;;;;;;;;;;;21.44;38.37;101603.41;5026611;28;19943;-95
2023/05/20 08:40:35;;;;;;;;;;;;;;;21.36;37.38;101599.59;5032886;28;20375;-94
2023/05/20 08:43:00;;;;;;;;;;;;;;;20.95;39.77;101601.28;5016712;28;19921;-92
2023/05/20 08:45:27;;;;;;;;;;;;;;;21.67;38.81;101602.25;5032963;28;19928;-94
2023/05/20 08:47:53;;;;;;;;;;;;;;;21.48;38.54;101610.03;5015608;28;19922;-93
2023/05/20 08:50:18;;;;;;;;;;;;;;;22.06;36.15;101599.75;5034789;28;19921;-91
2023/05/20 08:52:47;;;;;;;;;;;;;;;21.98;38.17;101602.22;5033371;28;20306;-94
2023/05/20 08:55:29;;;;;;;;;;;;;;;22.13;34.70;101600.03;5034946;28;19928;-92
2023/05/20 08:57:55;;;;;;;;;;;;;;;21.69;35.37;101605.56;5033311;28;20367;-93
2023/05/20 09:00:25;;;;;;;;;;;;;;;21.77;35.40;101611.00;5047098;28;19917;-94
2023/05/20 09:02:52;;;;;;;;;;;;;;;21.86;35.97;101604.13;5011911;28;19925;-96
2023/05/20 09:05:17;;;;;;;;;;;;;;;22.04;35.63;101601.66;5015361;28;19968;-93
2023/05/20 09:07:43;;;;;;;;;;;;;;;22.53;35.63;101596.53;5012813;28;19975;-93
2023/05/20 09:10:08;;;;;;;;;;;;;;;22.02;34.76;101593.94;5024385;28;19929;-93
2023/05/20 09:12:33;;;;;;;;;;;;;;;21.98;37.71;101587.28;4999140;28;19934;-94
2023/05/20 09:14:59;;;;;;;;;;;;;;;22.53;34.39;101586.84;5030920;28;19964;-93
2023/05/20 09:17:24;;;;;;;;;;;;;;;22.92;33.73;101592.06;5015536;28;19963;-94
2023/05/20 09:19:50;;;;;;;;;;;;;;;23.19;34.46;101593.16;5013764;28;19917;-95
2023/05/20 09:22:21;;;;;;;;;;;;;;;23.40;34.40;101585.91;5015321;28;19972;-94
2023/05/20 09:24:47;;;;;;;;;;;;;;;23.29;33.82;101586.09;5014542;28;19978;-95
2023/05/20 09:27:12;;;;;;;;;;;;;;;23.43;34.27;101585.59;5033323;28;20003;-93
2023/05/20 09:29:37;;;;;;;;;;;;;;;23.56;34.57;101579.19;5030248;28;19921;-94
2023/05/20 09:32:03;;;;;;;;;;;;;;;23.75;34.56;101584.41;5020632;28;19980;-93
2023/05/20 09:34:28;;;;;;;;;;;;;;;23.13;34.70;101577.94;5014902;28;19917;-93
2023/05/20 09:36:55;;;;;;;;;;;;;;;23.18;35.43;101580.97;5034493;28;19921;-93
2023/05/20 09:39:24;;;;;;;;;;;;;;;23.39;36.03;101576.34;5031070;28;19967;-94
2023/05/20 09:42:19;;;;;;;;;;;;;;;22.65;38.26;101572.59;5031766;28;19948;-94
2023/05/20 09:44:45;;;;;;;;;;;;;;;22.67;37.17;101574.22;5000189;28;19932;-93
2023/05/20 09:47:11;;;;;;;;;;;;;;;23.32;35.31;101575.25;5041771;28;19921;-93
2023/05/20 09:49:37;;;;;;;;;;;;;;;23.60;35.98;101568.19;5032969;28;20056;-92
2023/05/20 09:52:03;;;;;;;;;;;;;;;23.60;36.52;101564.72;5014755;28;19925;-93
2023/05/20 09:54:28;;;;;;;;;;;;;;;24.21;35.02;101566.75;5015367;28;19924;-92
2023/05/20 09:56:54;;;;;;;;;;;;;;;24.70;33.44;101563.75;5015654;28;19917;-92
2023/05/20 09:59:21;;;;;;;;;;;;;;;24.96;33.52;101551.41;5033624;28;19944;-93
2023/05/20 10:01:46;;;;;;;;;;;;;;;24.56;35.80;101557.22;5015796;28;20291;-93
2023/05/20 10:04:13;;;;;;;;;;;;;;;24.70;35.50;101564.59;5015631;28;19917;-93
2023/05/20 10:06:56;;;;;;;;;;;;;;;24.92;35.11;101558.00;5033329;28;20011;-93
2023/05/20 10:09:28;;;;;;;;;;;;;;;23.27;37.07;101548.50;5033425;28;19917;-93
2023/05/20 10:12:02;;;;;;;;;;;;;;;23.69;37.62;101548.88;5033102;28;19921;-93
2023/05/20 10:14:30;;;;;;;;;;;;;;;23.56;37.42;101548.41;5015373;28;20368;-93
2023/05/20 10:17:01;;;;;;;;;;;;;;;24.22;36.23;101555.25;5015174;28;19928;-93
2023/05/20 10:19:31;;;;;;;;;;;;;;;24.58;36.67;101550.00;5031832;28;19917;-93
2023/05/20 10:22:00;;;;;;;;;;;;;;;24.62;36.08;101550.50;5033122;28;19940;-93
2023/05/20 10:24:33;;;;;;;;;;;;;;;25.11;33.23;101548.19;5033054;28;19918;-93
2023/05/20 10:27:00;;;;;;;;;;;;;;;25.44;34.34;101546.59;5014569;28;19924;-93
2023/05/20 10:29:26;;;;;;;;;;;;;;;24.71;35.51;101539.84;5032736;28;20387;-93
2023/05/20 10:31:51;;;;;;;;;;;;;;;25.31;34.58;101527.69;5014990;28;19925;-93
2023/05/20 10:34:18;;;;;;;;;;;;;;;25.19;34.95;101522.69;5015185;28;19928;-93
2023/05/20 10:36:57;;;;;;;;;;;;;;;25.37;33.72;101527.06;5030220;28;19971;-93
2023/05/20 10:39:27;;;;;;;;;;;;;;;25.01;35.30;101521.88;5032169;28;20012;-93
2023/05/20 10:41:52;;;;;;;;;;;;;;;25.94;33.25;101523.78;5030670;28;20359;-93
2023/05/20 10:44:17;;;;;;;;;;;;;;;25.82;33.85;101517.94;5013268;28;19932;-93
2023/05/20 10:46:42;;;;;;;;;;;;;;;25.43;34.56;101529.06;5012874;28;20430;-93
2023/05/20 10:49:18;;;;;;;;;;;;;;;24.80;37.39;101524.91;5030876;28;19951;-92
2023/05/20 10:51:45;;;;;;;;;;;;;;;25.70;33.43;101535.09;5013080;28;19925;-92
2023/05/20 10:54:10;;;;;;;;;;;;;;;25.94;31.82;101524.59;5030718;28;19925;-93
2023/05/20 10:56:36;;;;;;;;;;;;;;;25.75;33.84;101535.44;5032590;28;19920;-92
2023/05/20 10:59:01;;;;;;;;;;;;;;;26.03;32.19;101533.41;5012671;28;19921;-93
2023/05/20 11:01:26;;;;;;;;;;;;;;;25.25;35.25;101526.50;5013039;28;19956;-93
2023/05/20 11:03:55;;;;;;;;;;;;;;;25.84;33.72;101526.53;5011373;28;20019;-93
2023/05/20 11:06:25;;;;;;;;;;;;;;;26.66;32.68;101518.72;5032073;28;19978;-93
2023/05/20 11:08:52;;;;;;;;;;;;;;;26.23;32.18;101512.75;5032425;28;19913;-93
2023/05/20 11:11:17;;;;;;;;;;;;;;;25.64;34.56;101515.44;5013684;28;20386;-93
2023/05/20 11:13:42;;;;;;;;;;;;;;;26.04;34.92;101516.53;5030871;28;19925;-93
2023/05/20 11:16:07;;;;;;;;;;;;;;;26.55;32.65;101519.88;5030406;28;19925;-93
2023/05/20 11:18:33;;;;;;;;;;;;;;;25.86;34.05;101516.66;5013449;28;19921;-93
2023/05/20 11:20:59;;;;;;;;;;;;;;;26.78;32.75;101513.91;5012673;28;20011;-93
2023/05/20 11:23:25;;;;;;;;;;;;;;;25.89;33.36;101511.03;5029485;28;19921;-93
2023/05/20 11:25:51;;;;;;;;;;;;;;;25.28;34.97;101506.88;5029034;28;19921;-93
2023/05/20 11:28:18;;;;;;;;;;;;;;;24.65;37.33;101507.94;5010951;28;19932;-93
2023/05/20 11:30:43;;;;;;;;;;;;;;;25.82;33.96;101512.66;5031878;28;19921;-94
2023/05/20 11:33:11;;;;;;;;;;;;;;;25.80;32.21;101502.25;5014623;28;20268;-93
2023/05/20 11:35:36;;;;;;;;;;;;;;;26.21;32.90;101498.84;5013376;28;19925;-93
2023/05/20 11:38:06;;;;;;;;;;;;;;;25.61;33.28;101503.34;5030627;28;20349;-93
2023/05/20 11:40:32;;;;;;;;;;;;;;;25.54;33.44;101497.06;5034392;28;19928;-92
2023/05/20 11:42:58;;;;;;;;;;;;;;;25.48;34.65;101502.97;5035547;28;19917;-93
2023/05/20 11:45:23;;;;;;;;;;;;;;;26.41;31.78;101486.09;5033041;28;19921;-92
2023/05/20 11:47:58;;;;;;;;;;;;;;;26.73;33.00;101487.94;5034523;28;20034;-93
2023/05/20 11:50:23;;;;;;;;;;;;;;;27.41;31.93;101486.56;5016441;28;19921;-93
2023/05/20 11:52:56;;;;;;;;;;;;;;;27.22;31.71;101484.34;5036129;28;19943;-93
2023/05/20 11:55:21;;;;;;;;;;;;;;;27.31;31.54;101488.59;5017451;28;19928;-92
2023/05/20 11:57:46;;;;;;;;;;;;;;;26.93;33.59;101492.84;5017071;28;19917;-93
2023/05/20 12:00:12;;;;;;;;;;;;;;;27.48;32.83;101484.03;5017036;28;19921;-94
2023/05/20 12:02:37;;;;;;;;;;;;;;;26.61;34.09;101478.69;5017938;28;19913;-93
2023/05/20 12:05:03;;;;;;;;;;;;;;;27.58;29.35;101484.66;5017927;28;19921;-93
2023/05/20 12:07:28;;;;;;;;;;;;;;;26.99;30.09;101471.78;5032086;28;19917;-92
2023/05/20 12:09:53;;;;;;;;;;;;;;;26.93;30.81;101479.59;5033615;28;19925;-93
2023/05/20 12:12:19;;;;;;;;;;;;;;;26.68;32.68;101479.66;5016849;28;19921;-92
2023/05/20 12:14:44;;;;;;;;;;;;;;;26.50;32.92;101468.41;5033921;28;19924;-93
2023/05/20 12:17:09;;;;;;;;;;;;;;;27.22;31.23;101469.25;5032340;28;19921;-93
2023/05/20 12:19:35;;;;;;;;;;;;;;;27.31;29.32;101470.88;5016122;28;19943;-92
2023/05/20 12:22:01;;;;;;;;;;;;;;;27.46;29.06;101459.53;5034916;28;19913;-93
2023/05/20 12:24:26;;;;;;;;;;;;;;;27.24;28.89;101461.97;5033805;28;19929;-93
2023/05/20 12:26:51;;;;;;;;;;;;;;;27.01;29.33;101453.88;5016876;28;20371;-92
2023/05/20 12:29:16;;;;;;;;;;;;;;;25.93;31.88;101448.91;5015603;28;19921;-94
2023/05/20 12:31:42;;;;;;;;;;;;;;;25.98;31.75;101451.88;5034361;28;20019;-94